createdAt,value
2023-05-09T00:01:30.056Z,100976.00
2023-05-09T00:04:32.963Z,100980.22
2023-05-09T00:07:36.170Z,100974.34
2023-05-09T00:10:38.873Z,100976.94
2023-05-09T00:13:42.111Z,100972.28
2023-05-09T00:16:46.004Z,100973.34
2023-05-09T00:19:49.855Z,100969.81
2023-05-09T00:22:52.568Z,100972.28
2023-05-09T00:25:55.475Z,100959.63
2023-05-09T00:28:58.329Z,100971.34
2023-05-09T00:32:01.106Z,100962.16
2023-05-09T00:35:04.205Z,100969.78
2023-05-09T00:38:07.168Z,100971.00
2023-05-09T00:41:10.048Z,100960.75
2023-05-09T00:44:12.940Z,100961.44
2023-05-09T00:47:15.820Z,100959.94
2023-05-09T00:50:18.720Z,100964.03
2023-05-09T00:53:21.583Z,100966.72
2023-05-09T00:56:24.537Z,100971.03
2023-05-09T00:59:27.600Z,100966.69
2023-05-09T01:02:31.725Z,100961.19
2023-05-09T01:05:49.495Z,100951.53
2023-05-09T01:09:08.325Z,100950.91
2023-05-09T01:12:37.032Z,100953.44
2023-05-09T01:15:54.345Z,100953.34
2023-05-09T01:19:43.068Z,100948.78
2023-05-09T01:22:52.891Z,100952.94
2023-05-09T01:26:03.447Z,100944.84
2023-05-09T01:29:57.067Z,100951.50
2023-05-09T01:33:03.316Z,100941.56
2023-05-09T01:36:12.337Z,100951.03
2023-05-09T01:39:18.292Z,100953.50
2023-05-09T01:42:22.890Z,100948.75
2023-05-09T01:45:27.401Z,100938.75
2023-05-09T01:48:32.045Z,100938.44
2023-05-09T01:51:37.801Z,100945.72
2023-05-09T01:54:43.086Z,100938.44
2023-05-09T01:57:46.653Z,100939.88
2023-05-09T02:00:50.920Z,100941.75
2023-05-09T02:03:54.736Z,100939.63
2023-05-09T02:06:58.844Z,100942.56
2023-05-09T02:10:03.386Z,100930.63
2023-05-09T02:13:07.094Z,100945.16
2023-05-09T02:16:10.528Z,100937.94
2023-05-09T02:19:13.236Z,100937.09
2023-05-09T02:22:16.361Z,100936.97
2023-05-09T02:25:19.194Z,100939.81
2023-05-09T02:28:23.640Z,100933.50
2023-05-09T02:31:30.017Z,100933.97
2023-05-09T02:34:33.506Z,100925.59
2023-05-09T02:37:37.214Z,100929.25
2023-05-09T02:40:42.483Z,100925.47
2023-05-09T02:43:45.202Z,100926.19
2023-05-09T02:46:48.014Z,100925.47
2023-05-09T02:49:50.999Z,100917.03
2023-05-09T02:52:53.928Z,100922.66
2023-05-09T02:55:56.946Z,100924.78
2023-05-09T02:58:59.813Z,100920.69
2023-05-09T03:02:02.853Z,100913.19
2023-05-09T03:05:06.834Z,100909.69
2023-05-09T03:08:11.682Z,100912.56
2023-05-09T03:11:14.445Z,100914.59
2023-05-09T03:14:18.465Z,100914.84
2023-05-09T03:17:21.622Z,100917.81
2023-05-09T03:20:27.090Z,100911.50
2023-05-09T03:23:29.982Z,100908.03
2023-05-09T03:26:32.885Z,100915.00
2023-05-09T03:29:36.726Z,100911.09
2023-05-09T03:32:40.756Z,100913.25
2023-05-09T03:35:43.489Z,100918.72
2023-05-09T03:38:46.332Z,100922.31
2023-05-09T03:41:49.416Z,100921.91
2023-05-09T03:44:52.827Z,100925.66
2023-05-09T03:47:57.177Z,100930.53
2023-05-09T03:51:00.166Z,100926.25
2023-05-09T03:54:05.816Z,100919.53
2023-05-09T03:57:08.644Z,100918.22
2023-05-09T04:00:12.664Z,100926.31
2023-05-09T04:03:25.038Z,100923.28
2023-05-09T04:06:30.801Z,100925.78
2023-05-09T04:09:34.481Z,100926.44
2023-05-09T04:12:37.425Z,100927.66
2023-05-09T04:15:40.824Z,100929.50
2023-05-09T04:18:43.618Z,100926.56
2023-05-09T04:21:46.407Z,100934.50
2023-05-09T04:24:49.291Z,100937.81
2023-05-09T04:27:52.577Z,100934.28
2023-05-09T04:30:56.375Z,100939.72
2023-05-09T04:33:59.864Z,100936.44
2023-05-09T04:37:04.521Z,100941.22
2023-05-09T04:40:09.382Z,100943.38
2023-05-09T04:43:28.137Z,100940.38
2023-05-09T04:46:31.230Z,100936.03
2023-05-09T04:49:34.202Z,100939.59
2023-05-09T04:52:37.006Z,100952.78
2023-05-09T04:55:40.174Z,100938.66
2023-05-09T04:58:43.511Z,100932.50
2023-05-09T05:01:47.479Z,100939.03
2023-05-09T05:04:50.409Z,100941.31
2023-05-09T05:07:54.353Z,100941.38
2023-05-09T05:11:00.992Z,100947.88
2023-05-09T05:14:04.282Z,100949.59
2023-05-09T05:17:07.211Z,100944.66
2023-05-09T05:20:10.874Z,100938.88
2023-05-09T05:23:18.585Z,100945.88
2023-05-09T05:26:22.136Z,100946.59
2023-05-09T05:29:25.186Z,100932.75
2023-05-09T05:32:28.217Z,100935.59
2023-05-09T05:35:31.073Z,100930.72
2023-05-09T05:38:34.213Z,100932.09
2023-05-09T05:41:37.128Z,100929.56
2023-05-09T05:44:42.782Z,100932.25
2023-05-09T05:47:46.517Z,100935.50
2023-05-09T05:50:50.057Z,100941.78
2023-05-09T05:53:56.407Z,100940.22
2023-05-09T05:57:00.346Z,100947.78
2023-05-09T06:00:06.256Z,100948.34
2023-05-09T06:03:17.677Z,100942.91
2023-05-09T06:06:28.588Z,100936.22
2023-05-09T06:09:31.821Z,100940.38
2023-05-09T06:12:34.658Z,100938.72
2023-05-09T06:15:37.826Z,100943.69
2023-05-09T06:18:41.374Z,100943.13
2023-05-09T06:21:44.480Z,100935.50
2023-05-09T06:24:47.418Z,100942.25
2023-05-09T06:27:50.236Z,100935.06
2023-05-09T06:30:53.832Z,100935.06
2023-05-09T06:33:56.765Z,100928.81
2023-05-09T06:36:59.673Z,100921.84
2023-05-09T06:40:02.526Z,100920.56
2023-05-09T06:43:05.290Z,100922.28
2023-05-09T06:46:08.181Z,100928.19
2023-05-09T06:49:11.177Z,100915.69
2023-05-09T06:52:15.832Z,100916.84
2023-05-09T06:55:18.625Z,100913.06
2023-05-09T06:58:21.479Z,100919.03
2023-05-09T07:01:24.238Z,100910.22
2023-05-09T07:04:26.983Z,100895.31
2023-05-09T07:07:29.865Z,100887.00
2023-05-09T07:10:32.845Z,100888.47
2023-05-09T07:13:35.833Z,100882.78
2023-05-09T07:16:38.656Z,100896.59
2023-05-09T07:19:42.240Z,100884.06
2023-05-09T07:22:45.125Z,100890.19
2023-05-09T07:25:47.887Z,100889.91
2023-05-09T07:28:50.637Z,100880.34
2023-05-09T07:31:53.473Z,100878.59
2023-05-09T07:34:56.316Z,100871.59
2023-05-09T07:37:59.198Z,100874.06
2023-05-09T07:41:02.036Z,100872.81
2023-05-09T07:44:04.941Z,100868.38
2023-05-09T07:47:09.180Z,100866.31
2023-05-09T07:50:12.126Z,100874.50
2023-05-09T07:53:15.624Z,100861.97
2023-05-09T07:56:20.188Z,100858.19
2023-05-09T07:59:22.861Z,100844.94
2023-05-09T08:02:26.092Z,100856.88
2023-05-09T08:05:28.951Z,100855.47
2023-05-09T08:08:31.699Z,100860.28
2023-05-09T08:11:36.105Z,100848.19
2023-05-09T08:14:38.854Z,100842.13
2023-05-09T08:17:41.661Z,100835.72
2023-05-09T08:20:44.487Z,100842.56
2023-05-09T08:23:47.302Z,100843.28
2023-05-09T08:26:50.003Z,100842.13
2023-05-09T08:29:52.794Z,100839.41
2023-05-09T08:32:56.570Z,100828.38
2023-05-09T08:35:59.301Z,100833.00
2023-05-09T08:39:02.442Z,100831.97
2023-05-09T08:42:05.410Z,100831.84
2023-05-09T08:45:14.865Z,100807.97
2023-05-09T08:48:20.056Z,100819.19
2023-05-09T08:51:23.545Z,100825.84
2023-05-09T08:54:26.611Z,100823.75
2023-05-09T08:57:29.691Z,100819.16
2023-05-09T09:00:33.926Z,100810.97
2023-05-09T09:03:38.454Z,100821.03
2023-05-09T09:06:41.626Z,100815.44
2023-05-09T09:09:49.058Z,100807.63
2023-05-09T09:12:54.379Z,100803.09
2023-05-09T09:16:00.159Z,100807.06
2023-05-09T09:19:04.864Z,100808.19
2023-05-09T09:22:10.963Z,100807.72
2023-05-09T09:25:13.831Z,100813.13
2023-05-09T09:28:16.846Z,100807.06
2023-05-09T09:31:24.935Z,100793.88
2023-05-09T09:34:27.733Z,100795.88
2023-05-09T09:37:30.496Z,100801.34
2023-05-09T09:40:33.262Z,100790.22
2023-05-09T09:43:36.459Z,100784.50
2023-05-09T09:46:56.126Z,100781.31
2023-05-09T09:49:58.947Z,100781.53
2023-05-09T09:53:01.818Z,100787.84
2023-05-09T09:56:04.698Z,100777.16
2023-05-09T09:59:18.305Z,100783.88
2023-05-09T10:02:26.464Z,100768.56
2023-05-09T10:05:30.902Z,100765.63
2023-05-09T10:08:33.906Z,100774.13
2023-05-09T10:11:36.820Z,100762.19
2023-05-09T10:14:42.562Z,100765.41
2023-05-09T10:17:45.707Z,100758.72
2023-05-09T10:20:48.724Z,100762.88
2023-05-09T10:23:53.333Z,100760.91
2023-05-09T10:27:11.302Z,100768.75
2023-05-09T10:30:34.236Z,100778.28
2023-05-09T10:33:48.249Z,100769.03
2023-05-09T10:36:51.019Z,100760.19
2023-05-09T10:39:55.611Z,100759.16
2023-05-09T10:42:58.347Z,100750.06
2023-05-09T10:46:01.821Z,100753.06
2023-05-09T10:49:04.849Z,100749.38
2023-05-09T10:52:07.727Z,100751.94
2023-05-09T10:55:11.551Z,100753.63
2023-05-09T10:58:27.985Z,100750.88
2023-05-09T11:01:37.279Z,100744.69
2023-05-09T11:04:41.187Z,100747.44
2023-05-09T11:07:44.133Z,100742.47
2023-05-09T11:10:47.165Z,100739.94
2023-05-09T11:13:49.912Z,100741.88
2023-05-09T11:17:01.030Z,100737.47
2023-05-09T11:20:05.882Z,100733.66
2023-05-09T11:23:10.536Z,100723.72
2023-05-09T11:26:15.353Z,100728.81
2023-05-09T11:29:18.141Z,100739.75
2023-05-09T11:32:31.058Z,100733.66
2023-05-09T11:35:38.724Z,100731.47
2023-05-09T11:38:43.022Z,100733.78
2023-05-09T11:41:49.325Z,100720.16
2023-05-09T11:44:52.715Z,100699.28
2023-05-09T11:47:57.263Z,100713.19
2023-05-09T11:51:03.704Z,100708.66
2023-05-09T11:54:09.188Z,100702.22
2023-05-09T11:57:17.359Z,100698.03
2023-05-09T12:00:22.424Z,100697.31
2023-05-09T12:03:25.505Z,100694.22
2023-05-09T12:06:30.103Z,100688.16
2023-05-09T12:09:34.937Z,100689.06
2023-05-09T12:12:43.455Z,100677.53
2023-05-09T12:15:46.433Z,100679.28
2023-05-09T12:18:51.751Z,100683.03
2023-05-09T12:21:59.343Z,100672.53
2023-05-09T12:25:07.504Z,100680.97
2023-05-09T12:28:10.739Z,100675.41
2023-05-09T12:31:14.003Z,100661.28
2023-05-09T12:34:17.247Z,100653.44
2023-05-09T12:37:20.433Z,100660.59
2023-05-09T12:40:23.608Z,100657.88
2023-05-09T12:43:26.485Z,100658.78
2023-05-09T12:46:29.550Z,100650.72
2023-05-09T12:49:32.737Z,100653.75
2023-05-09T12:52:43.957Z,100639.59
2023-05-09T12:55:49.727Z,100635.22
2023-05-09T12:58:54.552Z,100627.56
2023-05-09T13:01:59.492Z,100628.09
2023-05-09T13:05:13.261Z,100623.72
2023-05-09T13:08:16.288Z,100618.22
2023-05-09T13:11:20.783Z,100617.50
2023-05-09T13:14:23.587Z,100617.06
2023-05-09T13:17:26.442Z,100607.28
2023-05-09T13:20:29.327Z,100605.38
2023-05-09T13:23:32.063Z,100600.84
2023-05-09T13:26:34.863Z,100594.81
2023-05-09T13:29:37.614Z,100595.66
2023-05-09T13:32:40.480Z,100592.38
2023-05-09T13:35:43.317Z,100592.50
2023-05-09T13:38:46.264Z,100591.56
2023-05-09T13:41:51.424Z,100585.88
2023-05-09T13:44:54.493Z,100589.06
2023-05-09T13:47:57.362Z,100584.34
2023-05-09T13:51:01.353Z,100581.91
2023-05-09T13:54:09.960Z,100575.44
2023-05-09T13:57:12.823Z,100575.00
2023-05-09T14:00:16.307Z,100558.75
2023-05-09T14:03:19.076Z,100563.03
2023-05-09T14:06:22.341Z,100556.81
2023-05-09T14:09:25.115Z,100563.13
2023-05-09T14:12:28.954Z,100549.72
2023-05-09T14:15:31.697Z,100548.91
2023-05-09T14:18:35.431Z,100542.63
2023-05-09T14:21:38.471Z,100537.09
2023-05-09T14:24:41.239Z,100542.75
2023-05-09T14:30:46.565Z,100541.78
2023-05-09T14:33:49.252Z,100544.66
2023-05-09T14:36:52.154Z,100539.88
2023-05-09T14:39:54.954Z,100526.06
2023-05-09T14:43:02.702Z,100526.59
2023-05-09T14:46:05.775Z,100527.81
2023-05-09T14:49:09.638Z,100518.19
2023-05-09T14:52:13.841Z,100520.94
2023-05-09T14:55:21.460Z,100512.56
2023-05-09T14:58:24.273Z,100508.28
2023-05-09T15:01:27.149Z,100505.28
2023-05-09T15:04:31.426Z,100512.25
2023-05-09T15:07:34.673Z,100506.84
2023-05-09T15:10:37.437Z,100509.91
2023-05-09T15:13:40.229Z,100508.34
2023-05-09T15:16:43.081Z,100494.06
2023-05-09T15:19:45.891Z,100503.50
2023-05-09T15:22:50.102Z,100505.34
2023-05-09T15:25:52.975Z,100491.44
2023-05-09T15:28:55.834Z,100494.47
2023-05-09T15:31:58.602Z,100487.28
2023-05-09T15:35:01.404Z,100482.50
2023-05-09T15:38:04.212Z,100485.88
2023-05-09T15:41:07.014Z,100482.91
2023-05-09T15:44:09.762Z,100469.66
2023-05-09T15:47:12.545Z,100476.25
2023-05-09T15:50:15.441Z,100469.78
2023-05-09T15:53:18.312Z,100471.84
2023-05-09T15:56:21.762Z,100465.09
2023-05-09T15:59:24.464Z,100464.47
2023-05-09T16:02:28.604Z,100458.63
2023-05-09T16:05:32.539Z,100456.97
2023-05-09T16:08:35.379Z,100458.00
2023-05-09T16:11:38.137Z,100454.63
2023-05-09T16:14:40.926Z,100455.13
2023-05-09T16:17:45.248Z,100450.81
2023-05-09T16:20:48.079Z,100454.56
2023-05-09T16:23:51.009Z,100460.25
2023-05-09T16:26:53.796Z,100453.44
2023-05-09T16:29:56.601Z,100456.66
2023-05-09T16:32:59.561Z,100453.09
2023-05-09T16:36:02.485Z,100454.75
2023-05-09T16:39:05.369Z,100451.88
2023-05-09T16:42:09.304Z,100446.91
2023-05-09T16:45:12.112Z,100443.59
2023-05-09T16:48:16.560Z,100451.47
2023-05-09T16:51:19.433Z,100450.00
2023-05-09T16:54:23.249Z,100441.63
2023-05-09T16:57:26.193Z,100450.88
2023-05-09T17:00:29.179Z,100448.94
2023-05-09T17:03:32.041Z,100453.59
2023-05-09T17:06:35.073Z,100448.38
2023-05-09T17:09:38.041Z,100447.81
2023-05-09T17:12:40.936Z,100441.59
2023-05-09T17:15:43.967Z,100450.91
2023-05-09T17:18:47.725Z,100443.44
2023-05-09T17:21:50.843Z,100448.69
2023-05-09T17:24:54.259Z,100455.19
2023-05-09T17:27:57.069Z,100455.59
2023-05-09T17:30:59.844Z,100455.56
2023-05-09T17:34:04.281Z,100451.56
2023-05-09T17:37:08.179Z,100450.13
2023-05-09T17:40:11.165Z,100449.31
2023-05-09T17:43:13.874Z,100456.16
2023-05-09T17:46:16.582Z,100450.69
2023-05-09T17:49:19.398Z,100450.88
2023-05-09T17:52:22.311Z,100455.59
2023-05-09T17:55:25.109Z,100450.59
2023-05-09T17:58:28.194Z,100454.59
2023-05-09T18:01:31.026Z,100451.53
2023-05-09T18:04:34.740Z,100451.44
2023-05-09T18:07:39.448Z,100461.22
2023-05-09T18:10:42.331Z,100461.97
2023-05-09T18:13:45.127Z,100459.31
2023-05-09T18:16:47.889Z,100463.06
2023-05-09T18:19:50.816Z,100468.91
2023-05-09T18:22:54.536Z,100465.44
2023-05-09T18:25:57.302Z,100459.50
2023-05-09T18:29:00.073Z,100462.56
2023-05-09T18:32:03.253Z,100466.19
2023-05-09T18:35:06.700Z,100458.59
2023-05-09T18:38:09.505Z,100470.63
2023-05-09T18:41:12.960Z,100468.91
2023-05-09T18:44:15.861Z,100464.72
2023-05-09T18:47:18.826Z,100463.91
2023-05-09T18:50:21.941Z,100479.06
2023-05-09T18:53:28.982Z,100481.75
2023-05-09T18:56:37.738Z,100482.56
2023-05-09T18:59:40.868Z,100485.47
2023-05-09T19:02:43.678Z,100481.22
2023-05-09T19:05:47.527Z,100489.44
2023-05-09T19:08:50.384Z,100485.69
2023-05-09T19:11:53.899Z,100478.47
2023-05-09T19:14:57.217Z,100486.00
2023-05-09T19:18:01.027Z,100487.44
2023-05-09T19:21:04.284Z,100487.75
2023-05-09T19:24:07.502Z,100489.38
2023-05-09T19:27:10.219Z,100491.78
2023-05-09T19:30:18.096Z,100487.03
2023-05-09T19:33:21.169Z,100497.09
2023-05-09T19:36:23.952Z,100494.44
2023-05-09T19:39:28.952Z,100493.00
2023-05-09T19:42:33.427Z,100491.81
2023-05-09T19:45:37.546Z,100495.72
2023-05-09T19:48:40.632Z,100490.53
2023-05-09T19:51:43.892Z,100492.03
2023-05-09T19:54:47.153Z,100496.50
2023-05-09T19:57:49.851Z,100488.19
2023-05-09T20:00:52.616Z,100486.41
2023-05-09T20:03:57.006Z,100494.50
2023-05-09T20:06:59.800Z,100490.78
2023-05-09T20:10:02.590Z,100489.19
2023-05-09T20:13:05.480Z,100487.63
2023-05-09T20:16:08.485Z,100487.72
2023-05-09T20:19:14.222Z,100498.47
2023-05-09T20:22:17.191Z,100502.06
2023-05-09T20:25:20.341Z,100500.78
2023-05-09T20:28:23.142Z,100504.81
2023-05-09T20:31:26.064Z,100505.63
2023-05-09T20:34:28.879Z,100507.19
2023-05-09T20:37:32.001Z,100510.09
2023-05-09T20:40:35.150Z,100511.72
2023-05-09T20:43:38.483Z,100509.78
2023-05-09T20:46:41.594Z,100507.31
2023-05-09T20:49:44.596Z,100511.38
2023-05-09T20:52:47.296Z,100505.97
2023-05-09T20:55:50.722Z,100499.16
2023-05-09T20:58:53.690Z,100500.34
2023-05-09T21:01:56.538Z,100491.06
2023-05-09T21:04:59.273Z,100496.25
2023-05-09T21:08:01.987Z,100492.53
2023-05-09T21:11:04.748Z,100496.56
2023-05-09T21:14:08.483Z,100493.16
2023-05-09T21:17:11.318Z,100483.13
2023-05-09T21:20:14.538Z,100490.09
2023-05-09T21:23:18.863Z,100490.25
2023-05-09T21:26:23.239Z,100490.44
2023-05-09T21:29:26.041Z,100485.09
2023-05-09T21:32:28.910Z,100492.75
2023-05-09T21:35:31.661Z,100492.75
2023-05-09T21:38:34.393Z,100487.72
2023-05-09T21:41:38.444Z,100489.34
2023-05-09T21:44:41.165Z,100491.84
2023-05-09T21:47:44.067Z,100486.81
2023-05-09T21:50:46.964Z,100487.50
2023-05-09T21:53:49.742Z,100484.56
2023-05-09T21:56:52.394Z,100474.66
2023-05-09T21:59:56.328Z,100485.19
2023-05-09T22:02:59.425Z,100484.91
2023-05-09T22:06:02.139Z,100484.25
2023-05-09T22:09:06.660Z,100483.13
2023-05-09T22:12:09.424Z,100479.91
2023-05-09T22:15:12.261Z,100467.75
2023-05-09T22:18:15.044Z,100479.41
2023-05-09T22:21:17.830Z,100476.50
2023-05-09T22:24:20.743Z,100469.22
2023-05-09T22:27:23.480Z,100476.03
2023-05-09T22:30:26.340Z,100471.34
2023-05-09T22:33:29.369Z,100465.34
2023-05-09T22:36:32.308Z,100461.13
2023-05-09T22:39:35.004Z,100466.97
2023-05-09T22:42:37.872Z,100465.34
2023-05-09T22:45:40.704Z,100463.19
2023-05-09T22:48:43.479Z,100456.50
2023-05-09T22:51:46.398Z,100456.69
2023-05-09T22:54:49.149Z,100451.69
2023-05-09T22:57:51.929Z,100452.13
2023-05-09T23:00:54.672Z,100444.34
2023-05-09T23:03:57.476Z,100448.91
2023-05-09T23:07:00.233Z,100444.03
2023-05-09T23:10:04.263Z,100439.97
2023-05-09T23:13:07.927Z,100440.63
2023-05-09T23:16:10.909Z,100435.25
2023-05-09T23:19:13.702Z,100432.03
2023-05-09T23:22:16.735Z,100420.81
2023-05-09T23:25:19.613Z,100408.47
2023-05-09T23:28:25.388Z,100419.19
2023-05-09T23:31:28.302Z,100420.44
2023-05-09T23:34:31.241Z,100410.41
2023-05-09T23:37:34.262Z,100414.13
2023-05-09T23:40:37.191Z,100405.88
2023-05-09T23:43:40.116Z,100406.66
2023-05-09T23:46:42.943Z,100404.88
2023-05-09T23:49:45.737Z,100404.03
2023-05-09T23:52:51.082Z,100394.31
2023-05-09T23:55:53.908Z,100388.31
2023-05-09T23:58:56.766Z,100382.16
